createdAt,value
2018-10-03T00:01:11.772Z,98421.75
2018-10-03T00:03:39.951Z,98427.20
2018-10-03T00:06:08.137Z,98433.17
2018-10-03T00:08:36.304Z,98429.13
2018-10-03T00:11:04.576Z,98438.80
2018-10-03T00:13:32.724Z,98442.05
2018-10-03T00:16:00.888Z,98438.29
2018-10-03T00:18:29.098Z,98439.55
2018-10-03T00:20:57.278Z,98429.45
2018-10-03T00:23:25.504Z,98425.87
2018-10-03T00:25:53.734Z,98426.50
2018-10-03T00:28:21.904Z,98422.08
2018-10-03T00:30:50.068Z,98427.77
2018-10-03T00:33:18.245Z,98432.98
2018-10-03T00:35:46.615Z,98433.64
2018-10-03T00:38:14.846Z,98431.15
2018-10-03T00:40:43.085Z,98425.14
2018-10-03T00:43:11.269Z,98425.30
2018-10-03T00:45:39.465Z,98427.80
2018-10-03T00:48:08.041Z,98437.19
2018-10-03T00:50:36.213Z,98437.75
2018-10-03T00:53:04.381Z,98432.68
2018-10-03T00:55:32.557Z,98428.83
2018-10-03T00:58:00.795Z,98420.19
2018-10-03T01:00:28.957Z,98424.11
2018-10-03T01:02:57.153Z,98430.28
2018-10-03T01:05:25.331Z,98417.56
2018-10-03T01:07:53.557Z,98422.28
2018-10-03T01:10:21.764Z,98427.40
2018-10-03T01:12:50.030Z,98425.28
2018-10-03T01:15:18.198Z,98421.05
2018-10-03T01:17:46.922Z,98416.17
2018-10-03T01:20:15.094Z,98419.59
2018-10-03T01:22:43.266Z,98414.25
2018-10-03T01:25:12.284Z,98420.95
2018-10-03T01:27:40.478Z,98411.98
2018-10-03T01:31:12.074Z,98412.69
2018-10-03T01:33:40.245Z,98410.52
2018-10-03T01:36:08.417Z,98398.03
2018-10-03T01:38:36.594Z,98412.78
2018-10-03T01:41:04.770Z,98402.63
2018-10-03T01:43:32.937Z,98407.80
2018-10-03T01:46:01.113Z,98411.33
2018-10-03T01:48:30.011Z,98414.28
2018-10-03T01:50:58.189Z,98416.08
2018-10-03T01:53:26.353Z,98419.06
2018-10-03T01:55:55.456Z,98421.95
2018-10-03T01:58:23.641Z,98410.59
2018-10-03T02:00:51.828Z,98407.27
2018-10-03T02:03:20.004Z,98403.52
2018-10-03T02:05:48.174Z,98407.94
2018-10-03T02:08:16.784Z,98404.22
2018-10-03T02:10:44.946Z,98409.80
2018-10-03T02:13:13.109Z,98414.67
2018-10-03T02:15:41.288Z,98414.52
2018-10-03T02:18:09.438Z,98422.81
2018-10-03T02:20:37.600Z,98413.75
2018-10-03T02:23:05.792Z,98400.59
2018-10-03T02:25:34.174Z,98416.37
2018-10-03T02:28:02.334Z,98412.85
2018-10-03T02:30:30.517Z,98403.42
2018-10-03T02:32:59.152Z,98407.27
2018-10-03T02:35:27.316Z,98414.31
2018-10-03T02:37:55.697Z,98422.75
2018-10-03T02:40:23.914Z,98428.53
2018-10-03T02:42:52.093Z,98419.53
2018-10-03T02:45:21.257Z,98422.39
2018-10-03T02:47:50.957Z,98422.75
2018-10-03T02:50:19.197Z,98428.63
2018-10-03T02:52:47.615Z,98425.97
2018-10-03T02:55:15.865Z,98435.55
2018-10-03T02:57:44.053Z,98433.72
2018-10-03T03:00:12.453Z,98430.09
2018-10-03T03:02:40.702Z,98439.89
2018-10-03T03:05:08.949Z,98430.56
2018-10-03T03:07:37.479Z,98432.69
2018-10-03T03:10:05.793Z,98432.82
2018-10-03T03:12:34.017Z,98428.27
2018-10-03T03:15:02.308Z,98429.49
2018-10-03T03:17:30.448Z,98446.54
2018-10-03T03:19:58.613Z,98422.81
2018-10-03T03:22:26.837Z,98425.67
2018-10-03T03:24:54.996Z,98431.13
2018-10-03T03:27:23.268Z,98429.16
2018-10-03T03:29:51.448Z,98416.58
2018-10-03T03:32:19.622Z,98418.93
2018-10-03T03:34:47.902Z,98415.87
2018-10-03T03:37:16.076Z,98416.30
2018-10-03T03:39:44.283Z,98438.36
2018-10-03T03:42:12.453Z,98435.23
2018-10-03T03:44:40.745Z,98435.90
2018-10-03T03:47:08.929Z,98441.02
2018-10-03T03:49:37.094Z,98447.06
2018-10-03T03:52:05.394Z,98448.43
2018-10-03T03:54:33.557Z,98437.39
2018-10-03T03:57:01.825Z,98438.60
2018-10-03T03:59:30.012Z,98430.95
2018-10-03T04:01:58.333Z,98437.63
2018-10-03T04:04:26.753Z,98436.41
2018-10-03T04:06:54.943Z,98437.34
2018-10-03T04:09:23.197Z,98441.09
2018-10-03T04:11:51.467Z,98440.53
2018-10-03T04:14:19.673Z,98453.55
2018-10-03T04:16:47.829Z,98443.25
2018-10-03T04:19:16.380Z,98454.81
2018-10-03T04:21:44.565Z,98466.41
2018-10-03T04:24:12.922Z,98464.05
2018-10-03T04:26:41.458Z,98463.95
2018-10-03T04:29:10.054Z,98468.04
2018-10-03T04:31:38.271Z,98453.19
2018-10-03T04:34:06.892Z,98455.58
2018-10-03T04:36:35.552Z,98457.51
2018-10-03T04:39:05.488Z,98458.20
2018-10-03T04:41:33.929Z,98459.66
2018-10-03T04:44:02.162Z,98459.97
2018-10-03T04:46:30.434Z,98458.08
2018-10-03T04:48:58.632Z,98453.38
2018-10-03T04:51:26.809Z,98453.22
2018-10-03T04:53:55.058Z,98453.79
2018-10-03T04:56:23.255Z,98458.60
2018-10-03T04:58:51.469Z,98455.11
2018-10-03T05:01:19.636Z,98461.23
2018-10-03T05:03:47.793Z,98462.45
2018-10-03T05:06:15.981Z,98457.80
2018-10-03T05:08:44.149Z,98460.83
2018-10-03T05:11:12.445Z,98459.20
2018-10-03T05:13:40.564Z,98448.34
2018-10-03T05:16:08.883Z,98457.80
2018-10-03T05:18:37.106Z,98460.53
2018-10-03T05:21:05.335Z,98456.70
2018-10-03T05:23:33.515Z,98467.38
2018-10-03T05:26:01.736Z,98462.82
2018-10-03T05:28:30.015Z,98459.66
2018-10-03T05:30:58.320Z,98463.55
2018-10-03T05:33:27.185Z,98464.78
2018-10-03T05:35:55.312Z,98456.14
2018-10-03T05:38:23.548Z,98458.20
2018-10-03T05:40:51.792Z,98465.70
2018-10-03T05:43:20.080Z,98463.78
2018-10-03T05:45:48.256Z,98469.59
2018-10-03T05:48:16.436Z,98468.23
2018-10-03T05:50:44.756Z,98469.27
2018-10-03T05:53:12.922Z,98477.14
2018-10-03T05:55:41.162Z,98479.86
2018-10-03T05:58:09.874Z,98475.83
2018-10-03T06:00:38.118Z,98481.75
2018-10-03T06:03:06.286Z,98481.67
2018-10-03T06:05:34.510Z,98474.63
2018-10-03T06:08:02.712Z,98473.17
2018-10-03T06:10:30.894Z,98478.88
2018-10-03T06:12:59.104Z,98477.34
2018-10-03T06:15:27.461Z,98480.94
2018-10-03T06:17:56.045Z,98473.14
2018-10-03T06:20:24.265Z,98483.87
2018-10-03T06:22:52.498Z,98491.05
2018-10-03T06:25:21.585Z,98496.31
2018-10-03T06:27:50.009Z,98490.63
2018-10-03T06:30:18.520Z,98501.36
2018-10-03T06:32:46.752Z,98500.08
2018-10-03T06:35:15.594Z,98502.01
2018-10-03T06:37:43.791Z,98499.60
2018-10-03T06:40:11.947Z,98494.39
2018-10-03T06:42:40.517Z,98510.93
2018-10-03T06:45:08.706Z,98511.98
2018-10-03T06:47:36.889Z,98509.99
2018-10-03T06:50:05.110Z,98507.37
2018-10-03T06:52:33.350Z,98516.13
2018-10-03T06:55:01.522Z,98514.27
2018-10-03T06:57:30.236Z,98512.48
2018-10-03T06:59:58.417Z,98520.45
2018-10-03T07:02:26.635Z,98508.97
2018-10-03T07:04:54.829Z,98517.50
2018-10-03T07:07:23.125Z,98519.21
2018-10-03T07:09:51.496Z,98539.17
2018-10-03T07:12:19.737Z,98545.05
2018-10-03T07:14:47.889Z,98546.11
2018-10-03T07:17:16.097Z,98548.62
2018-10-03T07:19:44.408Z,98553.92
2018-10-03T07:22:12.595Z,98557.12
2018-10-03T07:24:40.777Z,98560.91
2018-10-03T07:27:09.037Z,98566.00
2018-10-03T07:29:37.269Z,98559.20
2018-10-03T07:32:05.438Z,98560.56
2018-10-03T07:34:33.888Z,98567.05
2018-10-03T07:37:02.116Z,98569.56
2018-10-03T07:39:30.321Z,98570.36
2018-10-03T07:41:58.625Z,98555.45
2018-10-03T07:44:26.818Z,98564.33
2018-10-03T07:46:55.184Z,98555.56
2018-10-03T07:49:23.413Z,98557.17
2018-10-03T07:51:51.727Z,98560.45
2018-10-03T07:54:19.982Z,98563.91
2018-10-03T07:56:48.284Z,98562.75
2018-10-03T07:59:16.432Z,98566.99
2018-10-03T08:01:44.672Z,98573.23
2018-10-03T08:04:12.855Z,98571.66
2018-10-03T08:06:41.320Z,98578.02
2018-10-03T08:09:10.480Z,98582.58
2018-10-03T08:11:38.762Z,98579.53
2018-10-03T08:14:08.050Z,98584.72
2018-10-03T08:16:36.264Z,98593.27
2018-10-03T08:19:04.522Z,98592.11
2018-10-03T08:21:33.005Z,98590.53
2018-10-03T08:24:01.269Z,98592.70
2018-10-03T08:26:30.401Z,98595.66
2018-10-03T08:28:58.662Z,98590.59
2018-10-03T08:31:26.909Z,98592.86
2018-10-03T08:33:55.185Z,98592.13
2018-10-03T08:36:23.349Z,98600.34
2018-10-03T08:38:51.638Z,98599.28
2018-10-03T08:41:20.805Z,98607.23
2018-10-03T08:43:49.061Z,98599.45
2018-10-03T08:46:17.253Z,98606.75
2018-10-03T08:48:47.401Z,98604.48
2018-10-03T08:51:15.583Z,98602.95
2018-10-03T08:53:43.732Z,98599.22
2018-10-03T08:56:11.989Z,98596.96
2018-10-03T08:58:40.253Z,98597.73
2018-10-03T09:01:08.350Z,98593.63
2018-10-03T09:03:36.840Z,98602.28
2018-10-03T09:06:05.029Z,98596.23
2018-10-03T09:08:33.222Z,98594.55
2018-10-03T09:11:01.793Z,98597.52
2018-10-03T09:13:29.953Z,98595.23
2018-10-03T09:15:59.913Z,98594.70
2018-10-03T09:18:28.332Z,98603.66
2018-10-03T09:20:56.504Z,98600.12
2018-10-03T09:23:24.753Z,98595.92
2018-10-03T09:25:52.947Z,98599.81
2018-10-03T09:28:21.118Z,98598.35
2018-10-03T09:30:49.729Z,98596.09
2018-10-03T09:33:18.218Z,98590.44
2018-10-03T09:35:47.281Z,98601.38
2018-10-03T09:38:15.467Z,98600.31
2018-10-03T09:40:43.953Z,98599.67
2018-10-03T09:43:12.595Z,98600.02
2018-10-03T09:45:40.781Z,98593.95
2018-10-03T09:48:08.985Z,98607.43
2018-10-03T09:50:37.726Z,98604.91
2018-10-03T09:53:05.973Z,98610.12
2018-10-03T09:55:34.213Z,98610.93
2018-10-03T09:58:02.444Z,98606.22
2018-10-03T10:00:35.985Z,98614.28
2018-10-03T10:03:04.188Z,98612.31
2018-10-03T10:05:32.358Z,98609.62
2018-10-03T10:08:00.563Z,98605.00
2018-10-03T10:10:28.778Z,98610.08
2018-10-03T10:12:56.973Z,98610.45
2018-10-03T10:15:25.159Z,98610.38
2018-10-03T10:17:53.317Z,98616.78
2018-10-03T10:20:21.568Z,98613.05
2018-10-03T10:22:50.617Z,98620.11
2018-10-03T10:25:19.027Z,98622.88
2018-10-03T10:27:48.617Z,98616.20
2018-10-03T10:30:16.855Z,98616.81
2018-10-03T10:32:45.229Z,98614.91
2018-10-03T10:35:13.761Z,98609.26
2018-10-03T10:37:41.969Z,98604.92
2018-10-03T10:40:10.651Z,98606.76
2018-10-03T10:42:38.895Z,98609.98
2018-10-03T10:45:07.305Z,98602.16
2018-10-03T10:47:35.569Z,98594.44
2018-10-03T10:50:03.886Z,98607.28
2018-10-03T10:52:32.028Z,98598.47
2018-10-03T10:55:00.221Z,98595.88
2018-10-03T10:57:28.482Z,98602.74
2018-10-03T10:59:56.676Z,98597.56
2018-10-03T11:02:24.922Z,98594.16
2018-10-03T11:04:53.150Z,98585.27
2018-10-03T11:07:21.406Z,98589.81
2018-10-03T11:09:49.668Z,98593.36
2018-10-03T11:12:17.818Z,98589.17
2018-10-03T11:14:45.989Z,98593.16
2018-10-03T11:17:14.180Z,98594.02
2018-10-03T11:19:42.443Z,98582.72
2018-10-03T11:22:10.636Z,98582.19
2018-10-03T11:24:39.166Z,98586.62
2018-10-03T11:27:07.274Z,98592.97
2018-10-03T11:29:35.480Z,98592.63
2018-10-03T11:32:03.772Z,98595.59
2018-10-03T11:34:31.894Z,98591.30
2018-10-03T11:37:00.117Z,98597.84
2018-10-03T11:39:28.295Z,98599.28
2018-10-03T11:41:56.472Z,98601.57
2018-10-03T11:44:24.696Z,98590.35
2018-10-03T11:46:52.863Z,98591.23
2018-10-03T11:49:21.029Z,98588.92
2018-10-03T11:51:49.646Z,98577.57
2018-10-03T11:54:17.812Z,98571.41
2018-10-03T11:56:46.033Z,98576.45
2018-10-03T11:59:14.268Z,98575.16
2018-10-03T12:01:42.479Z,98573.24
2018-10-03T12:04:10.632Z,98580.50
2018-10-03T12:06:38.983Z,98578.95
2018-10-03T12:09:09.567Z,98576.45
2018-10-03T12:11:37.814Z,98576.05
2018-10-03T12:14:06.000Z,98583.67
2018-10-03T12:16:34.246Z,98581.31
2018-10-03T12:19:02.486Z,98574.27
2018-10-03T12:21:30.823Z,98574.89
2018-10-03T12:23:59.019Z,98564.27
2018-10-03T12:26:27.242Z,98568.78
2018-10-03T12:28:55.554Z,98567.94
2018-10-03T12:31:24.417Z,98556.03
2018-10-03T12:33:52.686Z,98568.47
2018-10-03T12:36:20.805Z,98555.84
2018-10-03T12:38:49.273Z,98564.29
2018-10-03T12:41:17.465Z,98571.33
2018-10-03T12:43:45.699Z,98576.55
2018-10-03T12:46:13.893Z,98572.77
2018-10-03T12:48:43.829Z,98573.39
2018-10-03T12:51:12.107Z,98572.81
2018-10-03T12:53:40.276Z,98567.72
2018-10-03T12:56:08.465Z,98573.61
2018-10-03T12:58:36.756Z,98578.02
2018-10-03T13:01:04.978Z,98576.42
2018-10-03T13:03:33.219Z,98578.88
2018-10-03T13:06:02.702Z,98569.05
2018-10-03T13:08:30.869Z,98567.05
2018-10-03T13:10:59.231Z,98577.08
2018-10-03T13:13:27.434Z,98569.88
2018-10-03T13:15:55.628Z,98577.71
2018-10-03T13:18:23.794Z,98573.48
2018-10-03T13:20:51.980Z,98595.34
2018-10-03T13:23:20.392Z,98592.95
2018-10-03T13:25:48.665Z,98601.44
2018-10-03T13:28:16.842Z,98588.66
2018-10-03T13:30:45.095Z,98598.86
2018-10-03T13:33:13.197Z,98609.88
2018-10-03T13:35:41.438Z,98609.95
2018-10-03T13:38:09.601Z,98609.84
2018-10-03T13:40:37.828Z,98613.86
2018-10-03T13:43:06.152Z,98610.07
2018-10-03T13:45:34.368Z,98601.27
2018-10-03T13:48:02.592Z,98600.19
2018-10-03T13:50:30.788Z,98605.43
2018-10-03T13:52:58.989Z,98610.80
2018-10-03T13:55:27.183Z,98623.91
2018-10-03T13:57:55.382Z,98618.43
2018-10-03T14:00:23.572Z,98614.70
2018-10-03T14:02:51.765Z,98600.11
2018-10-03T14:05:20.021Z,98596.31
2018-10-03T14:07:48.187Z,98593.55
2018-10-03T14:10:16.357Z,98592.89
2018-10-03T14:12:44.781Z,98592.94
2018-10-03T14:15:12.981Z,98592.19
2018-10-03T14:17:41.189Z,98598.69
2018-10-03T14:20:09.377Z,98609.50
2018-10-03T14:22:37.529Z,98596.72
2018-10-03T14:25:06.181Z,98598.32
2018-10-03T14:27:34.422Z,98604.29
2018-10-03T14:30:02.674Z,98613.13
2018-10-03T14:32:30.836Z,98605.78
2018-10-03T14:34:59.039Z,98609.23
2018-10-03T14:37:27.201Z,98612.97
2018-10-03T14:39:55.508Z,98617.35
2018-10-03T14:42:23.646Z,98609.92
2018-10-03T14:44:51.825Z,98613.19
2018-10-03T14:47:19.997Z,98609.24
2018-10-03T14:49:48.222Z,98622.39
2018-10-03T14:52:16.504Z,98616.76
2018-10-03T14:54:44.761Z,98622.85
2018-10-03T14:57:13.178Z,98635.94
2018-10-03T14:59:41.486Z,98632.05
2018-10-03T15:02:09.865Z,98633.30
2018-10-03T15:04:38.065Z,98635.50
2018-10-03T15:07:06.668Z,98644.23
2018-10-03T15:09:34.825Z,98645.55
2018-10-03T15:12:03.013Z,98649.09
2018-10-03T15:14:31.193Z,98647.42
2018-10-03T15:16:59.349Z,98645.50
2018-10-03T15:19:27.529Z,98652.23
2018-10-03T15:21:55.688Z,98651.55
2018-10-03T15:24:23.904Z,98654.63
2018-10-03T15:26:52.057Z,98647.36
2018-10-03T15:29:20.242Z,98646.05
2018-10-03T15:31:48.388Z,98649.17
2018-10-03T15:34:16.589Z,98656.42
2018-10-03T15:36:44.777Z,98658.16
2018-10-03T15:39:12.952Z,98668.20
2018-10-03T15:41:41.119Z,98657.36
2018-10-03T15:44:09.286Z,98665.50
2018-10-03T15:46:37.499Z,98666.84
2018-10-03T15:49:05.698Z,98669.70
2018-10-03T15:51:33.894Z,98671.05
2018-10-03T15:54:02.142Z,98673.58
2018-10-03T15:56:30.381Z,98677.23
2018-10-03T15:58:58.561Z,98682.93
2018-10-03T16:01:26.751Z,98688.38
2018-10-03T16:03:54.943Z,98687.84
2018-10-03T16:06:23.202Z,98696.93
2018-10-03T16:08:51.393Z,98702.08
2018-10-03T16:11:19.569Z,98697.84
2018-10-03T16:13:47.889Z,98704.02
2018-10-03T16:16:16.119Z,98709.13
2018-10-03T16:18:44.389Z,98714.44
2018-10-03T16:21:12.609Z,98718.05
2018-10-03T16:23:40.765Z,98725.84
2018-10-03T16:26:09.285Z,98733.75
2018-10-03T16:28:37.513Z,98729.69
2018-10-03T16:31:05.858Z,98729.79
2018-10-03T16:33:34.053Z,98734.74
2018-10-03T16:36:02.308Z,98744.34
2018-10-03T16:38:30.496Z,98753.36
2018-10-03T16:40:58.715Z,98754.61
2018-10-03T16:43:26.891Z,98757.36
2018-10-03T16:45:55.227Z,98760.63
2018-10-03T16:48:24.578Z,98759.14
2018-10-03T16:50:53.103Z,98763.20
2018-10-03T16:53:21.290Z,98765.92
2018-10-03T16:55:49.458Z,98778.41
2018-10-03T16:58:17.617Z,98779.09
2018-10-03T17:00:45.849Z,98783.30
2018-10-03T17:03:14.125Z,98785.70
2018-10-03T17:05:42.297Z,98787.69
2018-10-03T17:08:10.486Z,98791.00
2018-10-03T17:10:38.661Z,98800.47
2018-10-03T17:13:06.874Z,98807.88
2018-10-03T17:15:35.158Z,98807.40
2018-10-03T17:18:03.369Z,98810.24
2018-10-03T17:20:31.530Z,98818.78
2018-10-03T17:22:59.737Z,98815.27
2018-10-03T17:25:27.973Z,98826.22
2018-10-03T17:27:56.137Z,98837.73
2018-10-03T17:30:24.541Z,98836.59
2018-10-03T17:32:54.839Z,98839.88
2018-10-03T17:35:23.354Z,98842.10
2018-10-03T17:37:51.966Z,98843.45
2018-10-03T17:40:20.344Z,98851.66
2018-10-03T17:42:48.574Z,98852.32
2018-10-03T17:45:16.778Z,98856.30
2018-10-03T17:47:44.960Z,98854.36
2018-10-03T17:50:13.360Z,98858.13
2018-10-03T17:52:41.528Z,98862.80
2018-10-03T17:55:09.850Z,98862.27
2018-10-03T17:57:40.032Z,98863.69
2018-10-03T18:00:08.688Z,98867.52
2018-10-03T18:02:36.890Z,98867.95
2018-10-03T18:05:05.349Z,98877.89
2018-10-03T18:07:33.423Z,98881.32
2018-10-03T18:10:01.606Z,98881.58
2018-10-03T18:12:29.793Z,98882.38
2018-10-03T18:14:57.961Z,98885.06
2018-10-03T18:17:26.160Z,98892.98
2018-10-03T18:19:54.440Z,98896.11
2018-10-03T18:22:22.726Z,98898.17
2018-10-03T18:24:51.027Z,98899.71
2018-10-03T18:27:19.305Z,98903.41
2018-10-03T18:29:48.145Z,98908.67
2018-10-03T18:32:16.417Z,98907.73
2018-10-03T18:34:44.915Z,98908.91
2018-10-03T18:37:13.191Z,98915.12
2018-10-03T18:39:41.409Z,98915.77
2018-10-03T18:42:09.549Z,98920.70
2018-10-03T18:44:37.759Z,98927.63
2018-10-03T18:47:06.102Z,98929.80
2018-10-03T18:49:34.263Z,98927.49
2018-10-03T18:52:02.532Z,98934.97
2018-10-03T18:54:30.698Z,98932.12
2018-10-03T18:56:58.870Z,98937.64
2018-10-03T18:59:27.098Z,98940.78
2018-10-03T19:01:55.371Z,98942.30
2018-10-03T19:04:23.610Z,98936.78
2018-10-03T19:06:51.872Z,98939.17
2018-10-03T19:09:20.098Z,98949.67
2018-10-03T19:11:48.516Z,98951.69
2018-10-03T19:14:16.799Z,98947.09
2018-10-03T19:16:45.123Z,98951.27
2018-10-03T19:19:13.378Z,98954.25
2018-10-03T19:21:41.670Z,98952.81
2018-10-03T19:24:09.860Z,98960.11
2018-10-03T19:26:38.045Z,98957.78
2018-10-03T19:29:06.259Z,98963.30
2018-10-03T19:31:34.541Z,98969.75
2018-10-03T19:34:02.761Z,98973.41
2018-10-03T19:36:30.984Z,98974.88
2018-10-03T19:38:59.179Z,98977.36
2018-10-03T19:41:27.424Z,98981.06
2018-10-03T19:43:55.694Z,98977.61
2018-10-03T19:46:23.897Z,98977.61
2018-10-03T19:48:52.156Z,98978.58
2018-10-03T19:51:20.374Z,98973.66
2018-10-03T19:53:48.838Z,98976.23
2018-10-03T19:56:17.008Z,98971.27
2018-10-03T19:58:45.284Z,98971.34
2018-10-03T20:01:17.536Z,98979.38
2018-10-03T20:03:45.731Z,98971.50
2018-10-03T20:06:14.516Z,98976.55
2018-10-03T20:08:42.904Z,98980.00
2018-10-03T20:11:11.117Z,98975.06
2018-10-03T20:13:39.565Z,98979.69
2018-10-03T20:16:07.888Z,98986.99
2018-10-03T20:18:36.081Z,98981.45
2018-10-03T20:21:04.467Z,98985.62
2018-10-03T20:23:32.579Z,98988.88
2018-10-03T20:26:00.761Z,98985.31
2018-10-03T20:28:28.974Z,98987.27
2018-10-03T20:30:57.177Z,98991.80
2018-10-03T20:33:25.380Z,98997.80
2018-10-03T20:35:53.601Z,98990.75
2018-10-03T20:38:21.789Z,98994.56
2018-10-03T20:40:49.993Z,98992.83
2018-10-03T20:43:18.225Z,98985.48
2018-10-03T20:45:46.419Z,98987.95
2018-10-03T20:48:14.716Z,98990.93
2018-10-03T20:50:42.853Z,98992.48
2018-10-03T20:53:11.401Z,98990.16
2018-10-03T20:55:39.612Z,98988.39
2018-10-03T20:58:07.783Z,98987.66
2018-10-03T21:00:36.027Z,98991.45
2018-10-03T21:03:04.249Z,98986.94
2018-10-03T21:05:32.428Z,98996.03
2018-10-03T21:08:00.608Z,98983.86
2018-10-03T21:10:28.785Z,98992.39
2018-10-03T21:12:57.039Z,98988.07
2018-10-03T21:15:26.248Z,98988.66
2018-10-03T21:17:54.512Z,98993.67
2018-10-03T21:20:22.776Z,98998.30
2018-10-03T21:22:51.106Z,98995.41
2018-10-03T21:25:19.265Z,98994.73
2018-10-03T21:27:47.428Z,98993.73
2018-10-03T21:30:15.658Z,98997.08
2018-10-03T21:32:43.810Z,98998.44
2018-10-03T21:35:11.977Z,98996.83
2018-10-03T21:37:40.185Z,98991.45
2018-10-03T21:40:08.402Z,98997.52
2018-10-03T21:42:36.649Z,98999.52
2018-10-03T21:45:04.930Z,99003.81
2018-10-03T21:47:33.121Z,98996.24
2018-10-03T21:50:01.285Z,98998.40
2018-10-03T21:52:29.469Z,99005.62
2018-10-03T21:54:57.725Z,99011.42
2018-10-03T21:57:25.899Z,99004.25
2018-10-03T21:59:54.091Z,98999.56
2018-10-03T22:02:22.277Z,99000.54
2018-10-03T22:04:50.461Z,99004.72
2018-10-03T22:07:18.661Z,99003.47
2018-10-03T22:09:46.887Z,99008.41
2018-10-03T22:12:15.066Z,99014.75
2018-10-03T22:14:43.336Z,99009.34
2018-10-03T22:17:25.960Z,99009.59
2018-10-03T22:19:55.602Z,99009.27
2018-10-03T22:22:23.845Z,99000.45
2018-10-03T22:24:52.220Z,99008.30
2018-10-03T22:27:20.389Z,99000.90
2018-10-03T22:29:48.673Z,99001.15
2018-10-03T22:32:16.815Z,99008.74
2018-10-03T22:34:44.998Z,99010.41
2018-10-03T22:37:13.166Z,99011.16
2018-10-03T22:39:41.960Z,99007.58
2018-10-03T22:42:10.310Z,99005.97
2018-10-03T22:44:38.509Z,99004.67
2018-10-03T22:47:06.942Z,98999.84
2018-10-03T22:49:35.158Z,99006.19
2018-10-03T22:52:03.370Z,99004.33
2018-10-03T22:54:31.538Z,99016.91
2018-10-03T22:57:00.042Z,99016.13
2018-10-03T22:59:28.193Z,99021.31
2018-10-03T23:01:56.610Z,99016.73
2018-10-03T23:04:24.993Z,99018.70
2018-10-03T23:06:53.149Z,99017.09
2018-10-03T23:09:21.311Z,99026.05
2018-10-03T23:11:49.493Z,99027.45
2018-10-03T23:14:17.653Z,99028.81
2018-10-03T23:16:45.877Z,99027.30
2018-10-03T23:19:14.065Z,99034.20
2018-10-03T23:21:42.344Z,99026.06
2018-10-03T23:24:10.524Z,99029.58
2018-10-03T23:26:38.698Z,99030.28
2018-10-03T23:29:06.872Z,99029.17
2018-10-03T23:31:35.200Z,99035.41
2018-10-03T23:34:03.399Z,99033.80
2018-10-03T23:36:31.647Z,99039.17
2018-10-03T23:38:59.813Z,99040.03
2018-10-03T23:41:28.059Z,99043.11
2018-10-03T23:43:56.315Z,99047.34
2018-10-03T23:46:24.493Z,99046.10
2018-10-03T23:48:52.677Z,99045.16
2018-10-03T23:51:20.845Z,99046.66
2018-10-03T23:53:49.013Z,99047.02
2018-10-03T23:56:17.213Z,99056.31
2018-10-03T23:58:45.373Z,99055.00
